sensor_id;sensor_type;location;lat;lon;timestamp;P1;durP1;ratioP1;P2;durP2;ratioP2
62711;SDS011;48772;55.586;37.730;2022-07-17T00:00:41;14.77;;;7.30;;
62711;SDS011;48772;55.586;37.730;2022-07-17T00:03:09;13.23;;;7.50;;
62711;SDS011;48772;55.586;37.730;2022-07-17T00:05:36;12.10;;;7.05;;
62711;SDS011;48772;55.586;37.730;2022-07-17T00:08:02;14.60;;;6.93;;
62711;SDS011;48772;55.586;37.730;2022-07-17T00:10:29;13.88;;;7.40;;
62711;SDS011;48772;55.586;37.730;2022-07-17T00:12:56;14.40;;;7.15;;
62711;SDS011;48772;55.586;37.730;2022-07-17T00:15:21;16.10;;;7.22;;
62711;SDS011;48772;55.586;37.730;2022-07-17T00:17:47;14.15;;;6.68;;
62711;SDS011;48772;55.586;37.730;2022-07-17T00:20:13;17.65;;;6.88;;
62711;SDS011;48772;55.586;37.730;2022-07-17T00:22:39;15.80;;;7.15;;
62711;SDS011;48772;55.586;37.730;2022-07-17T00:25:05;10.85;;;6.65;;
62711;SDS011;48772;55.586;37.730;2022-07-17T00:27:32;12.05;;;6.15;;
62711;SDS011;48772;55.586;37.730;2022-07-17T00:29:58;15.43;;;6.20;;
62711;SDS011;48772;55.586;37.730;2022-07-17T00:32:23;14.90;;;6.70;;
62711;SDS011;48772;55.586;37.730;2022-07-17T00:34:50;12.32;;;6.00;;
62711;SDS011;48772;55.586;37.730;2022-07-17T00:37:16;12.65;;;6.30;;
62711;SDS011;48772;55.586;37.730;2022-07-17T00:39:42;15.63;;;5.85;;
62711;SDS011;48772;55.586;37.730;2022-07-17T00:42:12;8.57;;;6.05;;
62711;SDS011;48772;55.586;37.730;2022-07-17T00:44:39;13.20;;;6.45;;
62711;SDS011;48772;55.586;37.730;2022-07-17T00:47:13;9.38;;;5.65;;
62711;SDS011;48772;55.586;37.730;2022-07-17T00:49:43;10.43;;;5.90;;
62711;SDS011;48772;55.586;37.730;2022-07-17T00:52:11;10.70;;;5.75;;
62711;SDS011;48772;55.586;37.730;2022-07-17T00:54:38;8.23;;;5.60;;
62711;SDS011;48772;55.586;37.730;2022-07-17T00:57:07;11.70;;;4.95;;
62711;SDS011;48772;55.586;37.730;2022-07-17T00:59:34;9.70;;;5.55;;
62711;SDS011;48772;55.586;37.730;2022-07-17T01:02:07;11.05;;;5.13;;
62711;SDS011;48772;55.586;37.730;2022-07-17T01:04:37;6.75;;;4.72;;
62711;SDS011;48772;55.586;37.730;2022-07-17T01:07:04;11.73;;;5.32;;
62711;SDS011;48772;55.586;37.730;2022-07-17T01:09:31;13.18;;;5.35;;
62711;SDS011;48772;55.586;37.730;2022-07-17T01:11:58;10.63;;;5.05;;
62711;SDS011;48772;55.586;37.730;2022-07-17T01:14:25;10.18;;;4.57;;
62711;SDS011;48772;55.586;37.730;2022-07-17T01:16:52;8.88;;;4.80;;
62711;SDS011;48772;55.586;37.730;2022-07-17T01:19:18;8.13;;;4.32;;
62711;SDS011;48772;55.586;37.730;2022-07-17T01:21:46;9.10;;;4.70;;
62711;SDS011;48772;55.586;37.730;2022-07-17T01:24:13;7.95;;;5.10;;
62711;SDS011;48772;55.586;37.730;2022-07-17T01:26:41;13.43;;;5.40;;
62711;SDS011;48772;55.586;37.730;2022-07-17T01:29:12;10.20;;;5.25;;
62711;SDS011;48772;55.586;37.730;2022-07-17T01:31:38;10.70;;;5.30;;
62711;SDS011;48772;55.586;37.730;2022-07-17T01:34:05;13.45;;;5.78;;
62711;SDS011;48772;55.586;37.730;2022-07-17T01:36:32;9.27;;;5.90;;
62711;SDS011;48772;55.586;37.730;2022-07-17T01:38:58;8.80;;;5.75;;
62711;SDS011;48772;55.586;37.730;2022-07-17T01:41:24;7.68;;;5.40;;
62711;SDS011;48772;55.586;37.730;2022-07-17T01:43:50;9.25;;;6.03;;
62711;SDS011;48772;55.586;37.730;2022-07-17T01:46:16;10.90;;;5.90;;
62711;SDS011;48772;55.586;37.730;2022-07-17T01:48:42;10.90;;;6.47;;
62711;SDS011;48772;55.586;37.730;2022-07-17T01:51:08;11.55;;;6.70;;
62711;SDS011;48772;55.586;37.730;2022-07-17T01:53:34;11.73;;;5.47;;
62711;SDS011;48772;55.586;37.730;2022-07-17T01:55:59;12.27;;;6.00;;
62711;SDS011;48772;55.586;37.730;2022-07-17T01:58:25;9.18;;;5.60;;
62711;SDS011;48772;55.586;37.730;2022-07-17T02:00:52;9.80;;;5.97;;
62711;SDS011;48772;55.586;37.730;2022-07-17T02:03:19;10.20;;;6.00;;
62711;SDS011;48772;55.586;37.730;2022-07-17T02:05:45;7.95;;;5.60;;
62711;SDS011;48772;55.586;37.730;2022-07-17T02:08:11;12.00;;;6.00;;
62711;SDS011;48772;55.586;37.730;2022-07-17T02:10:37;10.52;;;5.47;;
62711;SDS011;48772;55.586;37.730;2022-07-17T02:13:03;10.75;;;5.70;;
62711;SDS011;48772;55.586;37.730;2022-07-17T02:15:49;13.55;;;5.13;;
62711;SDS011;48772;55.586;37.730;2022-07-17T02:18:15;12.70;;;5.82;;
62711;SDS011;48772;55.586;37.730;2022-07-17T02:20:40;7.82;;;5.03;;
62711;SDS011;48772;55.586;37.730;2022-07-17T02:23:07;9.93;;;5.57;;
62711;SDS011;48772;55.586;37.730;2022-07-17T02:25:33;13.88;;;5.80;;
62711;SDS011;48772;55.586;37.730;2022-07-17T02:27:59;13.15;;;5.93;;
62711;SDS011;48772;55.586;37.730;2022-07-17T02:30:24;8.93;;;6.15;;
62711;SDS011;48772;55.586;37.730;2022-07-17T02:32:50;9.88;;;5.93;;
62711;SDS011;48772;55.586;37.730;2022-07-17T02:35:16;8.93;;;5.63;;
62711;SDS011;48772;55.586;37.730;2022-07-17T02:37:42;12.27;;;5.80;;
62711;SDS011;48772;55.586;37.730;2022-07-17T02:40:08;10.20;;;5.78;;
62711;SDS011;48772;55.586;37.730;2022-07-17T02:42:35;10.57;;;5.82;;
62711;SDS011;48772;55.586;37.730;2022-07-17T02:45:01;12.00;;;6.00;;
62711;SDS011;48772;55.586;37.730;2022-07-17T02:47:30;8.95;;;5.47;;
62711;SDS011;48772;55.586;37.730;2022-07-17T02:49:58;9.60;;;5.63;;
62711;SDS011;48772;55.586;37.730;2022-07-17T02:52:27;8.88;;;6.00;;
62711;SDS011;48772;55.586;37.730;2022-07-17T02:54:53;9.82;;;6.18;;
62711;SDS011;48772;55.586;37.730;2022-07-17T02:57:18;9.32;;;5.40;;
62711;SDS011;48772;55.586;37.730;2022-07-17T02:59:44;9.73;;;6.60;;
62711;SDS011;48772;55.586;37.730;2022-07-17T03:02:10;12.82;;;5.65;;
62711;SDS011;48772;55.586;37.730;2022-07-17T03:04:36;12.40;;;5.78;;
62711;SDS011;48772;55.586;37.730;2022-07-17T03:07:03;9.98;;;5.95;;
62711;SDS011;48772;55.586;37.730;2022-07-17T03:09:29;9.15;;;5.45;;
62711;SDS011;48772;55.586;37.730;2022-07-17T03:11:54;9.50;;;6.00;;
62711;SDS011;48772;55.586;37.730;2022-07-17T03:14:20;9.57;;;6.00;;
62711;SDS011;48772;55.586;37.730;2022-07-17T03:16:46;10.10;;;5.72;;
62711;SDS011;48772;55.586;37.730;2022-07-17T03:19:12;9.38;;;5.50;;
62711;SDS011;48772;55.586;37.730;2022-07-17T03:21:38;10.77;;;5.80;;
62711;SDS011;48772;55.586;37.730;2022-07-17T03:24:03;12.77;;;5.72;;
62711;SDS011;48772;55.586;37.730;2022-07-17T03:26:30;8.57;;;5.60;;
62711;SDS011;48772;55.586;37.730;2022-07-17T03:28:55;10.13;;;5.93;;
62711;SDS011;48772;55.586;37.730;2022-07-17T03:31:21;11.63;;;6.28;;
62711;SDS011;48772;55.586;37.730;2022-07-17T03:33:47;11.70;;;5.78;;
62711;SDS011;48772;55.586;37.730;2022-07-17T03:36:13;6.30;;;5.22;;
62711;SDS011;48772;55.586;37.730;2022-07-17T03:38:39;9.15;;;5.70;;
62711;SDS011;48772;55.586;37.730;2022-07-17T03:41:05;9.65;;;5.88;;
62711;SDS011;48772;55.586;37.730;2022-07-17T03:43:30;7.25;;;5.50;;
62711;SDS011;48772;55.586;37.730;2022-07-17T03:45:56;8.85;;;5.82;;
62711;SDS011;48772;55.586;37.730;2022-07-17T03:48:22;9.68;;;5.63;;
62711;SDS011;48772;55.586;37.730;2022-07-17T03:50:48;10.35;;;6.35;;
62711;SDS011;48772;55.586;37.730;2022-07-17T03:53:13;9.82;;;5.40;;
62711;SDS011;48772;55.586;37.730;2022-07-17T03:55:39;11.27;;;5.88;;
62711;SDS011;48772;55.586;37.730;2022-07-17T03:58:05;8.35;;;5.25;;
62711;SDS011;48772;55.586;37.730;2022-07-17T04:00:31;12.50;;;5.32;;
62711;SDS011;48772;55.586;37.730;2022-07-17T04:02:57;8.52;;;6.18;;
62711;SDS011;48772;55.586;37.730;2022-07-17T04:05:22;8.55;;;5.32;;
62711;SDS011;48772;55.586;37.730;2022-07-17T04:07:48;9.27;;;4.85;;
62711;SDS011;48772;55.586;37.730;2022-07-17T04:10:14;8.63;;;5.47;;
62711;SDS011;48772;55.586;37.730;2022-07-17T04:12:40;11.48;;;5.97;;
62711;SDS011;48772;55.586;37.730;2022-07-17T04:15:07;10.10;;;4.78;;
62711;SDS011;48772;55.586;37.730;2022-07-17T04:17:34;10.05;;;5.10;;
62711;SDS011;48772;55.586;37.730;2022-07-17T04:20:00;11.65;;;5.65;;
62711;SDS011;48772;55.586;37.730;2022-07-17T04:22:29;7.97;;;5.70;;
62711;SDS011;48772;55.586;37.730;2022-07-17T04:24:55;10.45;;;5.32;;
62711;SDS011;48772;55.586;37.730;2022-07-17T04:27:20;9.73;;;5.72;;
62711;SDS011;48772;55.586;37.730;2022-07-17T04:29:46;8.82;;;5.10;;
62711;SDS011;48772;55.586;37.730;2022-07-17T04:32:12;10.57;;;5.03;;
62711;SDS011;48772;55.586;37.730;2022-07-17T04:34:38;11.57;;;5.03;;
62711;SDS011;48772;55.586;37.730;2022-07-17T04:37:04;10.38;;;4.90;;
62711;SDS011;48772;55.586;37.730;2022-07-17T04:39:30;6.35;;;4.25;;
62711;SDS011;48772;55.586;37.730;2022-07-17T04:41:56;9.27;;;3.95;;
62711;SDS011;48772;55.586;37.730;2022-07-17T04:44:22;6.68;;;4.10;;
62711;SDS011;48772;55.586;37.730;2022-07-17T04:46:48;6.70;;;3.85;;
62711;SDS011;48772;55.586;37.730;2022-07-17T04:49:14;5.15;;;3.75;;
62711;SDS011;48772;55.586;37.730;2022-07-17T04:51:40;5.57;;;3.53;;
62711;SDS011;48772;55.586;37.730;2022-07-17T04:54:06;7.07;;;3.83;;
62711;SDS011;48772;55.586;37.730;2022-07-17T04:56:31;8.80;;;3.80;;
62711;SDS011;48772;55.586;37.730;2022-07-17T04:58:57;8.70;;;3.80;;
62711;SDS011;48772;55.586;37.730;2022-07-17T05:01:23;7.30;;;3.47;;
62711;SDS011;48772;55.586;37.730;2022-07-17T05:03:49;7.15;;;3.90;;
62711;SDS011;48772;55.586;37.730;2022-07-17T05:06:15;7.50;;;3.53;;
62711;SDS011;48772;55.586;37.730;2022-07-17T05:08:41;10.68;;;4.10;;
62711;SDS011;48772;55.586;37.730;2022-07-17T05:11:07;5.43;;;3.50;;
62711;SDS011;48772;55.586;37.730;2022-07-17T05:13:32;8.13;;;3.80;;
62711;SDS011;48772;55.586;37.730;2022-07-17T05:15:58;7.60;;;3.53;;
62711;SDS011;48772;55.586;37.730;2022-07-17T05:18:24;7.35;;;3.88;;
62711;SDS011;48772;55.586;37.730;2022-07-17T05:20:50;8.57;;;3.60;;
62711;SDS011;48772;55.586;37.730;2022-07-17T05:23:15;8.57;;;3.80;;
62711;SDS011;48772;55.586;37.730;2022-07-17T05:25:41;7.90;;;3.42;;
62711;SDS011;48772;55.586;37.730;2022-07-17T05:28:09;8.52;;;3.17;;
62711;SDS011;48772;55.586;37.730;2022-07-17T05:30:35;6.80;;;3.08;;
62711;SDS011;48772;55.586;37.730;2022-07-17T05:33:00;7.22;;;2.97;;
62711;SDS011;48772;55.586;37.730;2022-07-17T05:35:26;6.22;;;3.00;;
62711;SDS011;48772;55.586;37.730;2022-07-17T05:37:52;10.48;;;2.95;;
62711;SDS011;48772;55.586;37.730;2022-07-17T05:40:18;9.95;;;2.70;;
62711;SDS011;48772;55.586;37.730;2022-07-17T05:42:44;5.20;;;2.80;;
62711;SDS011;48772;55.586;37.730;2022-07-17T05:45:10;3.50;;;2.55;;
62711;SDS011;48772;55.586;37.730;2022-07-17T05:47:36;6.28;;;2.50;;
62711;SDS011;48772;55.586;37.730;2022-07-17T05:50:01;3.30;;;1.80;;
62711;SDS011;48772;55.586;37.730;2022-07-17T05:52:28;6.10;;;2.13;;
62711;SDS011;48772;55.586;37.730;2022-07-17T05:54:54;2.13;;;1.60;;
62711;SDS011;48772;55.586;37.730;2022-07-17T05:57:20;4.05;;;1.70;;
62711;SDS011;48772;55.586;37.730;2022-07-17T05:59:46;1.98;;;1.73;;
62711;SDS011;48772;55.586;37.730;2022-07-17T06:02:12;4.28;;;2.00;;
62711;SDS011;48772;55.586;37.730;2022-07-17T06:04:37;3.10;;;1.60;;
62711;SDS011;48772;55.586;37.730;2022-07-17T06:07:03;6.93;;;1.60;;
62711;SDS011;48772;55.586;37.730;2022-07-17T06:09:29;4.50;;;1.70;;
62711;SDS011;48772;55.586;37.730;2022-07-17T06:11:55;3.75;;;2.22;;
62711;SDS011;48772;55.586;37.730;2022-07-17T06:14:21;4.00;;;1.90;;
62711;SDS011;48772;55.586;37.730;2022-07-17T06:16:46;6.55;;;2.03;;
62711;SDS011;48772;55.586;37.730;2022-07-17T06:19:12;5.65;;;2.00;;
62711;SDS011;48772;55.586;37.730;2022-07-17T06:21:38;3.05;;;1.88;;
62711;SDS011;48772;55.586;37.730;2022-07-17T06:24:03;2.90;;;2.00;;
62711;SDS011;48772;55.586;37.730;2022-07-17T06:26:29;2.53;;;1.92;;
62711;SDS011;48772;55.586;37.730;2022-07-17T06:28:55;2.47;;;1.92;;
62711;SDS011;48772;55.586;37.730;2022-07-17T06:31:21;3.38;;;1.85;;
62711;SDS011;48772;55.586;37.730;2022-07-17T06:33:48;5.32;;;1.80;;
62711;SDS011;48772;55.586;37.730;2022-07-17T06:36:14;3.67;;;2.05;;
62711;SDS011;48772;55.586;37.730;2022-07-17T06:38:40;4.38;;;1.95;;
62711;SDS011;48772;55.586;37.730;2022-07-17T06:41:09;2.60;;;1.80;;
62711;SDS011;48772;55.586;37.730;2022-07-17T06:43:35;5.13;;;1.42;;
62711;SDS011;48772;55.586;37.730;2022-07-17T06:46:01;4.45;;;1.58;;
62711;SDS011;48772;55.586;37.730;2022-07-17T06:48:27;3.92;;;1.55;;
62711;SDS011;48772;55.586;37.730;2022-07-17T06:50:53;2.67;;;1.50;;
62711;SDS011;48772;55.586;37.730;2022-07-17T06:53:18;2.38;;;1.67;;
62711;SDS011;48772;55.586;37.730;2022-07-17T06:55:44;2.75;;;1.65;;
62711;SDS011;48772;55.586;37.730;2022-07-17T06:58:10;7.60;;;1.77;;
62711;SDS011;48772;55.586;37.730;2022-07-17T07:00:37;2.97;;;1.50;;
62711;SDS011;48772;55.586;37.730;2022-07-17T07:03:03;1.30;;;1.20;;
62711;SDS011;48772;55.586;37.730;2022-07-17T07:05:29;3.45;;;1.75;;
62711;SDS011;48772;55.586;37.730;2022-07-17T07:07:54;2.40;;;1.50;;
62711;SDS011;48772;55.586;37.730;2022-07-17T07:10:20;2.95;;;1.42;;
62711;SDS011;48772;55.586;37.730;2022-07-17T07:12:46;2.50;;;1.50;;
62711;SDS011;48772;55.586;37.730;2022-07-17T07:15:12;4.00;;;1.40;;
62711;SDS011;48772;55.586;37.730;2022-07-17T07:17:39;2.60;;;1.40;;
62711;SDS011;48772;55.586;37.730;2022-07-17T07:20:06;2.30;;;1.20;;
62711;SDS011;48772;55.586;37.730;2022-07-17T07:22:33;4.50;;;1.30;;
62711;SDS011;48772;55.586;37.730;2022-07-17T07:24:59;3.30;;;1.20;;
62711;SDS011;48772;55.586;37.730;2022-07-17T07:27:25;3.42;;;1.50;;
62711;SDS011;48772;55.586;37.730;2022-07-17T07:29:51;4.05;;;1.38;;
62711;SDS011;48772;55.586;37.730;2022-07-17T07:32:17;2.80;;;1.50;;
62711;SDS011;48772;55.586;37.730;2022-07-17T07:34:43;2.17;;;1.30;;
62711;SDS011;48772;55.586;37.730;2022-07-17T07:37:08;1.52;;;1.20;;
62711;SDS011;48772;55.586;37.730;2022-07-17T07:39:34;2.03;;;1.38;;
62711;SDS011;48772;55.586;37.730;2022-07-17T07:42:00;5.18;;;1.10;;
62711;SDS011;48772;55.586;37.730;2022-07-17T07:44:26;5.90;;;1.20;;
62711;SDS011;48772;55.586;37.730;2022-07-17T07:46:52;1.13;;;1.02;;
62711;SDS011;48772;55.586;37.730;2022-07-17T07:49:18;1.25;;;0.95;;
62711;SDS011;48772;55.586;37.730;2022-07-17T07:51:44;1.55;;;1.13;;
62711;SDS011;48772;55.586;37.730;2022-07-17T07:54:10;2.10;;;1.15;;
62711;SDS011;48772;55.586;37.730;2022-07-17T07:56:35;1.23;;;0.90;;
62711;SDS011;48772;55.586;37.730;2022-07-17T07:59:02;2.03;;;1.17;;
62711;SDS011;48772;55.586;37.730;2022-07-17T08:01:28;3.28;;;1.08;;
62711;SDS011;48772;55.586;37.730;2022-07-17T08:03:55;2.50;;;1.10;;
62711;SDS011;48772;55.586;37.730;2022-07-17T08:06:21;2.20;;;1.05;;
62711;SDS011;48772;55.586;37.730;2022-07-17T08:08:48;3.25;;;1.10;;
62711;SDS011;48772;55.586;37.730;2022-07-17T08:11:13;1.20;;;1.10;;
62711;SDS011;48772;55.586;37.730;2022-07-17T08:13:40;4.22;;;1.10;;
62711;SDS011;48772;55.586;37.730;2022-07-17T08:16:10;1.70;;;1.00;;
62711;SDS011;48772;55.586;37.730;2022-07-17T08:18:36;2.42;;;1.00;;
62711;SDS011;48772;55.586;37.730;2022-07-17T08:21:01;3.92;;;1.00;;
62711;SDS011;48772;55.586;37.730;2022-07-17T08:23:27;1.48;;;0.93;;
62711;SDS011;48772;55.586;37.730;2022-07-17T08:25:53;1.58;;;1.00;;
62711;SDS011;48772;55.586;37.730;2022-07-17T08:28:19;2.67;;;0.90;;
62711;SDS011;48772;55.586;37.730;2022-07-17T08:30:45;2.05;;;0.90;;
62711;SDS011;48772;55.586;37.730;2022-07-17T08:33:10;5.82;;;1.00;;
62711;SDS011;48772;55.586;37.730;2022-07-17T08:35:37;2.20;;;1.00;;
62711;SDS011;48772;55.586;37.730;2022-07-17T08:38:03;2.20;;;0.98;;
62711;SDS011;48772;55.586;37.730;2022-07-17T08:40:30;2.58;;;0.93;;
62711;SDS011;48772;55.586;37.730;2022-07-17T08:42:59;2.33;;;1.20;;
62711;SDS011;48772;55.586;37.730;2022-07-17T08:45:25;6.43;;;1.00;;
62711;SDS011;48772;55.586;37.730;2022-07-17T08:47:52;3.20;;;1.05;;
62711;SDS011;48772;55.586;37.730;2022-07-17T08:50:22;3.08;;;1.70;;
62711;SDS011;48772;55.586;37.730;2022-07-17T08:52:49;2.70;;;1.20;;
62711;SDS011;48772;55.586;37.730;2022-07-17T08:55:15;1.38;;;1.00;;
62711;SDS011;48772;55.586;37.730;2022-07-17T08:57:42;2.03;;;1.17;;
62711;SDS011;48772;55.586;37.730;2022-07-17T09:00:09;2.38;;;1.13;;
62711;SDS011;48772;55.586;37.730;2022-07-17T09:02:37;2.47;;;1.02;;
62711;SDS011;48772;55.586;37.730;2022-07-17T09:05:04;5.13;;;2.53;;
62711;SDS011;48772;55.586;37.730;2022-07-17T09:07:44;2.22;;;1.10;;
62711;SDS011;48772;55.586;37.730;2022-07-17T09:10:11;1.75;;;1.02;;
62711;SDS011;48772;55.586;37.730;2022-07-17T09:12:36;1.33;;;1.15;;
62711;SDS011;48772;55.586;37.730;2022-07-17T09:15:13;2.13;;;1.10;;
62711;SDS011;48772;55.586;37.730;2022-07-17T09:17:47;2.45;;;1.23;;
62711;SDS011;48772;55.586;37.730;2022-07-17T09:20:13;2.78;;;1.17;;
62711;SDS011;48772;55.586;37.730;2022-07-17T09:22:39;3.17;;;1.30;;
62711;SDS011;48772;55.586;37.730;2022-07-17T09:25:07;3.40;;;1.20;;
62711;SDS011;48772;55.586;37.730;2022-07-17T09:27:33;6.32;;;1.30;;
62711;SDS011;48772;55.586;37.730;2022-07-17T09:30:06;1.23;;;1.10;;
62711;SDS011;48772;55.586;37.730;2022-07-17T09:32:35;2.65;;;1.48;;
62711;SDS011;48772;55.586;37.730;2022-07-17T09:35:03;2.00;;;1.20;;
62711;SDS011;48772;55.586;37.730;2022-07-17T09:37:31;1.15;;;1.05;;
62711;SDS011;48772;55.586;37.730;2022-07-17T09:39:58;6.30;;;2.90;;
62711;SDS011;48772;55.586;37.730;2022-07-17T09:42:31;2.58;;;1.23;;
62711;SDS011;48772;55.586;37.730;2022-07-17T09:47:32;3.10;;;1.00;;
62711;SDS011;48772;55.586;37.730;2022-07-17T09:50:00;1.25;;;0.80;;
62711;SDS011;48772;55.586;37.730;2022-07-17T09:52:30;2.10;;;0.70;;
62711;SDS011;48772;55.586;37.730;2022-07-17T09:54:57;1.17;;;0.85;;
62711;SDS011;48772;55.586;37.730;2022-07-17T09:57:24;2.28;;;0.70;;
62711;SDS011;48772;55.586;37.730;2022-07-17T09:59:56;1.30;;;0.73;;
62711;SDS011;48772;55.586;37.730;2022-07-17T10:02:25;1.10;;;0.95;;
62711;SDS011;48772;55.586;37.730;2022-07-17T10:04:51;1.48;;;0.95;;
62711;SDS011;48772;55.586;37.730;2022-07-17T10:07:18;2.95;;;1.30;;
62711;SDS011;48772;55.586;37.730;2022-07-17T10:09:44;0.98;;;0.90;;
62711;SDS011;48772;55.586;37.730;2022-07-17T10:12:11;2.47;;;1.20;;
62711;SDS011;48772;55.586;37.730;2022-07-17T10:14:39;4.50;;;2.75;;
62711;SDS011;48772;55.586;37.730;2022-07-17T10:17:10;4.78;;;1.20;;
62711;SDS011;48772;55.586;37.730;2022-07-17T10:19:47;2.05;;;0.98;;
62711;SDS011;48772;55.586;37.730;2022-07-17T10:22:16;1.80;;;1.30;;
62711;SDS011;48772;55.586;37.730;2022-07-17T10:24:49;2.92;;;1.45;;
62711;SDS011;48772;55.586;37.730;2022-07-17T10:27:18;1.58;;;1.08;;
62711;SDS011;48772;55.586;37.730;2022-07-17T10:29:46;1.38;;;0.93;;
62711;SDS011;48772;55.586;37.730;2022-07-17T10:32:16;0.80;;;0.80;;
62711;SDS011;48772;55.586;37.730;2022-07-17T10:34:52;1.38;;;0.90;;
62711;SDS011;48772;55.586;37.730;2022-07-17T10:37:27;2.70;;;2.40;;
62711;SDS011;48772;55.586;37.730;2022-07-17T10:42:39;2.92;;;1.00;;
62711;SDS011;48772;55.586;37.730;2022-07-17T10:45:16;2.75;;;1.70;;
62711;SDS011;48772;55.586;37.730;2022-07-17T10:50:16;5.28;;;1.50;;
62711;SDS011;48772;55.586;37.730;2022-07-17T10:52:43;5.85;;;1.40;;
62711;SDS011;48772;55.586;37.730;2022-07-17T10:55:20;2.00;;;1.10;;
62711;SDS011;48772;55.586;37.730;2022-07-17T10:57:47;3.17;;;1.20;;
62711;SDS011;48772;55.586;37.730;2022-07-17T11:00:14;2.10;;;1.25;;
62711;SDS011;48772;55.586;37.730;2022-07-17T11:02:41;1.30;;;1.02;;
62711;SDS011;48772;55.586;37.730;2022-07-17T11:05:11;3.42;;;1.20;;
62711;SDS011;48772;55.586;37.730;2022-07-17T11:07:48;2.78;;;1.30;;
62711;SDS011;48772;55.586;37.730;2022-07-17T11:10:22;1.40;;;1.23;;
62711;SDS011;48772;55.586;37.730;2022-07-17T11:12:55;3.38;;;1.40;;
62711;SDS011;48772;55.586;37.730;2022-07-17T11:15:37;4.20;;;1.30;;
62711;SDS011;48772;55.586;37.730;2022-07-17T11:18:17;4.00;;;1.40;;
62711;SDS011;48772;55.586;37.730;2022-07-17T11:20:52;1.83;;;1.30;;
62711;SDS011;48772;55.586;37.730;2022-07-17T11:23:26;1.63;;;1.10;;
62711;SDS011;48772;55.586;37.730;2022-07-17T11:26:04;2.00;;;1.05;;
62711;SDS011;48772;55.586;37.730;2022-07-17T11:31:02;2.20;;;1.45;;
62711;SDS011;48772;55.586;37.730;2022-07-17T11:33:30;3.05;;;1.20;;
62711;SDS011;48772;55.586;37.730;2022-07-17T11:35:56;3.40;;;1.30;;
62711;SDS011;48772;55.586;37.730;2022-07-17T11:38:25;3.10;;;1.40;;
62711;SDS011;48772;55.586;37.730;2022-07-17T11:40:52;4.95;;;1.60;;
62711;SDS011;48772;55.586;37.730;2022-07-17T11:43:18;3.00;;;1.30;;
62711;SDS011;48772;55.586;37.730;2022-07-17T11:45:44;4.60;;;1.42;;
62711;SDS011;48772;55.586;37.730;2022-07-17T11:48:10;3.95;;;1.65;;
62711;SDS011;48772;55.586;37.730;2022-07-17T11:50:36;2.45;;;1.75;;
62711;SDS011;48772;55.586;37.730;2022-07-17T11:53:04;2.70;;;1.30;;
62711;SDS011;48772;55.586;37.730;2022-07-17T11:55:37;3.10;;;1.50;;
62711;SDS011;48772;55.586;37.730;2022-07-17T11:58:06;6.38;;;1.30;;
62711;SDS011;48772;55.586;37.730;2022-07-17T12:00:32;1.55;;;1.45;;
62711;SDS011;48772;55.586;37.730;2022-07-17T12:03:05;2.92;;;1.42;;
62711;SDS011;48772;55.586;37.730;2022-07-17T12:05:32;4.00;;;1.52;;
62711;SDS011;48772;55.586;37.730;2022-07-17T12:08:00;2.15;;;1.33;;
62711;SDS011;48772;55.586;37.730;2022-07-17T12:10:28;3.33;;;1.50;;
62711;SDS011;48772;55.586;37.730;2022-07-17T12:12:56;6.65;;;2.35;;
62711;SDS011;48772;55.586;37.730;2022-07-17T12:20:53;2.38;;;1.40;;
62711;SDS011;48772;55.586;37.730;2022-07-17T12:23:30;4.03;;;1.35;;
62711;SDS011;48772;55.586;37.730;2022-07-17T12:26:03;3.50;;;1.40;;
62711;SDS011;48772;55.586;37.730;2022-07-17T12:28:30;3.35;;;1.52;;
62711;SDS011;48772;55.586;37.730;2022-07-17T12:30:56;1.40;;;1.30;;
62711;SDS011;48772;55.586;37.730;2022-07-17T12:33:22;2.45;;;1.42;;
62711;SDS011;48772;55.586;37.730;2022-07-17T12:35:48;1.60;;;1.38;;
62711;SDS011;48772;55.586;37.730;2022-07-17T12:38:14;3.35;;;1.42;;
62711;SDS011;48772;55.586;37.730;2022-07-17T12:40:40;1.98;;;1.35;;
62711;SDS011;48772;55.586;37.730;2022-07-17T12:43:06;1.48;;;1.38;;
62711;SDS011;48772;55.586;37.730;2022-07-17T12:45:34;1.90;;;1.35;;
62711;SDS011;48772;55.586;37.730;2022-07-17T12:48:00;1.42;;;1.23;;
62711;SDS011;48772;55.586;37.730;2022-07-17T12:50:26;1.30;;;1.10;;
62711;SDS011;48772;55.586;37.730;2022-07-17T12:52:51;3.35;;;1.10;;
62711;SDS011;48772;55.586;37.730;2022-07-17T12:55:17;2.15;;;1.20;;
62711;SDS011;48772;55.586;37.730;2022-07-17T12:57:44;1.25;;;1.15;;
62711;SDS011;48772;55.586;37.730;2022-07-17T13:00:10;1.55;;;1.17;;
62711;SDS011;48772;55.586;37.730;2022-07-17T13:02:36;1.20;;;1.10;;
62711;SDS011;48772;55.586;37.730;2022-07-17T13:05:02;1.80;;;1.25;;
62711;SDS011;48772;55.586;37.730;2022-07-17T13:07:29;3.65;;;1.15;;
62711;SDS011;48772;55.586;37.730;2022-07-17T13:09:54;2.78;;;2.47;;
62711;SDS011;48772;55.586;37.730;2022-07-17T13:12:21;2.35;;;1.88;;
62711;SDS011;48772;55.586;37.730;2022-07-17T13:14:47;2.55;;;2.35;;
62711;SDS011;48772;55.586;37.730;2022-07-17T13:17:14;2.67;;;1.35;;
62711;SDS011;48772;55.586;37.730;2022-07-17T13:19:41;2.58;;;1.20;;
62711;SDS011;48772;55.586;37.730;2022-07-17T13:22:07;3.13;;;1.20;;
62711;SDS011;48772;55.586;37.730;2022-07-17T13:24:36;2.35;;;1.50;;
62711;SDS011;48772;55.586;37.730;2022-07-17T13:27:01;2.50;;;1.10;;
62711;SDS011;48772;55.586;37.730;2022-07-17T13:29:28;1.70;;;1.45;;
62711;SDS011;48772;55.586;37.730;2022-07-17T13:31:54;2.08;;;1.30;;
62711;SDS011;48772;55.586;37.730;2022-07-17T13:34:21;5.15;;;1.40;;
62711;SDS011;48772;55.586;37.730;2022-07-17T13:36:48;3.45;;;1.45;;
62711;SDS011;48772;55.586;37.730;2022-07-17T13:39:14;1.80;;;1.23;;
62711;SDS011;48772;55.586;37.730;2022-07-17T13:41:40;4.10;;;1.20;;
62711;SDS011;48772;55.586;37.730;2022-07-17T13:44:06;2.13;;;1.15;;
62711;SDS011;48772;55.586;37.730;2022-07-17T13:46:33;2.40;;;1.48;;
62711;SDS011;48772;55.586;37.730;2022-07-17T13:48:58;1.48;;;1.30;;
62711;SDS011;48772;55.586;37.730;2022-07-17T13:51:27;2.80;;;1.30;;
62711;SDS011;48772;55.586;37.730;2022-07-17T13:53:58;4.60;;;1.45;;
62711;SDS011;48772;55.586;37.730;2022-07-17T13:56:24;1.85;;;1.35;;
62711;SDS011;48772;55.586;37.730;2022-07-17T13:58:50;3.22;;;1.45;;
62711;SDS011;48772;55.586;37.730;2022-07-17T14:01:16;1.55;;;1.40;;
62711;SDS011;48772;55.586;37.730;2022-07-17T14:03:42;2.08;;;1.48;;
62711;SDS011;48772;55.586;37.730;2022-07-17T14:06:07;1.67;;;1.33;;
62711;SDS011;48772;55.586;37.730;2022-07-17T14:08:34;3.00;;;1.40;;
62711;SDS011;48772;55.586;37.730;2022-07-17T14:11:01;2.08;;;1.52;;
62711;SDS011;48772;55.586;37.730;2022-07-17T14:13:27;2.53;;;1.20;;
62711;SDS011;48772;55.586;37.730;2022-07-17T14:15:53;2.42;;;1.15;;
62711;SDS011;48772;55.586;37.730;2022-07-17T14:18:19;1.42;;;1.23;;
62711;SDS011;48772;55.586;37.730;2022-07-17T14:20:45;1.88;;;1.30;;
62711;SDS011;48772;55.586;37.730;2022-07-17T14:23:11;2.45;;;1.50;;
62711;SDS011;48772;55.586;37.730;2022-07-17T14:25:37;3.22;;;1.40;;
62711;SDS011;48772;55.586;37.730;2022-07-17T14:28:03;3.60;;;1.40;;
62711;SDS011;48772;55.586;37.730;2022-07-17T14:30:37;4.80;;;1.33;;
62711;SDS011;48772;55.586;37.730;2022-07-17T14:33:06;2.28;;;1.40;;
62711;SDS011;48772;55.586;37.730;2022-07-17T14:35:42;2.65;;;1.33;;
62711;SDS011;48772;55.586;37.730;2022-07-17T14:38:08;1.90;;;1.20;;
62711;SDS011;48772;55.586;37.730;2022-07-17T14:40:34;4.43;;;1.38;;
62711;SDS011;48772;55.586;37.730;2022-07-17T14:43:08;2.42;;;1.30;;
62711;SDS011;48772;55.586;37.730;2022-07-17T14:45:35;1.70;;;1.30;;